sensor_id;sensor_type;location;lat;lon;timestamp;P1;durP1;ratioP1;P2;durP2;ratioP2
76801;SDS011;66403;50.832;10.950;2023-06-22T00:01:54;4.35;;;3.03;;
76801;SDS011;66403;50.832;10.950;2023-06-22T00:06:54;4.60;;;3.00;;
76801;SDS011;66403;50.832;10.950;2023-06-22T00:11:54;4.03;;;3.07;;
76801;SDS011;66403;50.832;10.950;2023-06-22T00:16:55;3.85;;;2.97;;
76801;SDS011;66403;50.832;10.950;2023-06-22T00:21:57;4.60;;;3.78;;
76801;SDS011;66403;50.832;10.950;2023-06-22T00:27:00;5.32;;;3.83;;
76801;SDS011;66403;50.832;10.950;2023-06-22T00:32:00;4.88;;;3.17;;
76801;SDS011;66403;50.832;10.950;2023-06-22T00:37:01;4.00;;;3.28;;
76801;SDS011;66403;50.832;10.950;2023-06-22T00:42:01;5.20;;;3.22;;
76801;SDS011;66403;50.832;10.950;2023-06-22T00:47:04;4.57;;;3.45;;
76801;SDS011;66403;50.832;10.950;2023-06-22T00:52:05;5.53;;;3.70;;
76801;SDS011;66403;50.832;10.950;2023-06-22T00:57:09;4.60;;;3.72;;
76801;SDS011;66403;50.832;10.950;2023-06-22T01:02:11;5.20;;;4.10;;
76801;SDS011;66403;50.832;10.950;2023-06-22T01:07:18;4.97;;;3.80;;
76801;SDS011;66403;50.832;10.950;2023-06-22T01:12:29;5.15;;;3.70;;
76801;SDS011;66403;50.832;10.950;2023-06-22T01:17:30;5.82;;;4.13;;
76801;SDS011;66403;50.832;10.950;2023-06-22T01:22:33;6.05;;;3.75;;
76801;SDS011;66403;50.832;10.950;2023-06-22T01:28:06;4.75;;;3.75;;
76801;SDS011;66403;50.832;10.950;2023-06-22T01:38:16;5.35;;;4.00;;
76801;SDS011;66403;50.832;10.950;2023-06-22T01:43:16;5.15;;;4.03;;
76801;SDS011;66403;50.832;10.950;2023-06-22T01:48:17;5.78;;;4.20;;
76801;SDS011;66403;50.832;10.950;2023-06-22T01:53:18;6.00;;;4.35;;
76801;SDS011;66403;50.832;10.950;2023-06-22T01:58:20;7.03;;;4.80;;
76801;SDS011;66403;50.832;10.950;2023-06-22T02:03:26;5.68;;;4.50;;
76801;SDS011;66403;50.832;10.950;2023-06-22T02:08:32;7.22;;;5.22;;
76801;SDS011;66403;50.832;10.950;2023-06-22T02:13:37;4.75;;;4.15;;
76801;SDS011;66403;50.832;10.950;2023-06-22T02:18:47;6.55;;;4.55;;
76801;SDS011;66403;50.832;10.950;2023-06-22T02:23:50;5.82;;;5.03;;
76801;SDS011;66403;50.832;10.950;2023-06-22T02:28:51;5.50;;;4.50;;
76801;SDS011;66403;50.832;10.950;2023-06-22T02:33:51;7.32;;;4.85;;
76801;SDS011;66403;50.832;10.950;2023-06-22T02:38:53;7.63;;;4.85;;
76801;SDS011;66403;50.832;10.950;2023-06-22T02:43:56;6.35;;;4.82;;
76801;SDS011;66403;50.832;10.950;2023-06-22T02:48:56;6.15;;;4.93;;
76801;SDS011;66403;50.832;10.950;2023-06-22T02:53:57;5.50;;;4.68;;
76801;SDS011;66403;50.832;10.950;2023-06-22T02:58:59;5.53;;;4.50;;
76801;SDS011;66403;50.832;10.950;2023-06-22T03:04:01;5.70;;;4.60;;
76801;SDS011;66403;50.832;10.950;2023-06-22T03:09:02;5.97;;;5.05;;
76801;SDS011;66403;50.832;10.950;2023-06-22T03:14:04;6.35;;;5.07;;
76801;SDS011;66403;50.832;10.950;2023-06-22T03:19:05;6.07;;;4.82;;
76801;SDS011;66403;50.832;10.950;2023-06-22T03:24:06;8.50;;;5.55;;
76801;SDS011;66403;50.832;10.950;2023-06-22T03:29:07;6.25;;;5.03;;
76801;SDS011;66403;50.832;10.950;2023-06-22T03:34:08;9.18;;;6.18;;
76801;SDS011;66403;50.832;10.950;2023-06-22T03:39:09;6.32;;;4.55;;
76801;SDS011;66403;50.832;10.950;2023-06-22T03:44:10;9.68;;;5.70;;
76801;SDS011;66403;50.832;10.950;2023-06-22T03:49:12;6.15;;;5.18;;
76801;SDS011;66403;50.832;10.950;2023-06-22T03:54:13;5.93;;;4.47;;
76801;SDS011;66403;50.832;10.950;2023-06-22T03:59:13;6.38;;;5.38;;
76801;SDS011;66403;50.832;10.950;2023-06-22T04:04:13;7.20;;;5.33;;
76801;SDS011;66403;50.832;10.950;2023-06-22T04:09:14;7.18;;;5.75;;
76801;SDS011;66403;50.832;10.950;2023-06-22T04:14:14;7.85;;;5.88;;
76801;SDS011;66403;50.832;10.950;2023-06-22T04:19:15;8.23;;;6.60;;
76801;SDS011;66403;50.832;10.950;2023-06-22T04:24:17;11.15;;;7.13;;
76801;SDS011;66403;50.832;10.950;2023-06-22T04:29:18;8.77;;;6.55;;
76801;SDS011;66403;50.832;10.950;2023-06-22T04:34:18;7.53;;;6.47;;
76801;SDS011;66403;50.832;10.950;2023-06-22T04:39:19;10.57;;;5.75;;
76801;SDS011;66403;50.832;10.950;2023-06-22T04:44:19;9.43;;;6.40;;
76801;SDS011;66403;50.832;10.950;2023-06-22T04:49:26;10.13;;;6.28;;
76801;SDS011;66403;50.832;10.950;2023-06-22T04:54:33;9.63;;;7.90;;
76801;SDS011;66403;50.832;10.950;2023-06-22T04:59:34;11.60;;;8.05;;
76801;SDS011;66403;50.832;10.950;2023-06-22T05:04:35;8.63;;;5.97;;
76801;SDS011;66403;50.832;10.950;2023-06-22T05:09:38;15.07;;;7.00;;
76801;SDS011;66403;50.832;10.950;2023-06-22T05:14:39;11.07;;;8.00;;
76801;SDS011;66403;50.832;10.950;2023-06-22T05:19:39;9.90;;;6.50;;
76801;SDS011;66403;50.832;10.950;2023-06-22T05:24:45;8.38;;;6.38;;
76801;SDS011;66403;50.832;10.950;2023-06-22T05:29:45;10.65;;;7.38;;
76801;SDS011;66403;50.832;10.950;2023-06-22T05:34:46;10.00;;;7.13;;
76801;SDS011;66403;50.832;10.950;2023-06-22T05:39:46;6.43;;;5.80;;
76801;SDS011;66403;50.832;10.950;2023-06-22T05:44:46;7.47;;;6.33;;
76801;SDS011;66403;50.832;10.950;2023-06-22T05:49:47;8.47;;;6.53;;
76801;SDS011;66403;50.832;10.950;2023-06-22T05:54:47;8.93;;;6.93;;
76801;SDS011;66403;50.832;10.950;2023-06-22T05:59:48;8.40;;;6.57;;
76801;SDS011;66403;50.832;10.950;2023-06-22T06:04:48;10.90;;;6.90;;
76801;SDS011;66403;50.832;10.950;2023-06-22T06:09:51;9.48;;;7.43;;
76801;SDS011;66403;50.832;10.950;2023-06-22T06:14:51;12.10;;;9.13;;
76801;SDS011;66403;50.832;10.950;2023-06-22T06:19:53;13.52;;;7.38;;
76801;SDS011;66403;50.832;10.950;2023-06-22T06:24:53;12.33;;;7.23;;
76801;SDS011;66403;50.832;10.950;2023-06-22T06:29:54;8.60;;;6.53;;
76801;SDS011;66403;50.832;10.950;2023-06-22T06:34:54;12.00;;;8.00;;
76801;SDS011;66403;50.832;10.950;2023-06-22T06:39:55;14.93;;;7.17;;
76801;SDS011;66403;50.832;10.950;2023-06-22T06:44:55;8.30;;;7.23;;
76801;SDS011;66403;50.832;10.950;2023-06-22T06:49:55;10.13;;;6.90;;
76801;SDS011;66403;50.832;10.950;2023-06-22T06:54:56;9.90;;;7.53;;
76801;SDS011;66403;50.832;10.950;2023-06-22T06:59:56;9.85;;;7.43;;
76801;SDS011;66403;50.832;10.950;2023-06-22T07:04:57;9.73;;;7.07;;
76801;SDS011;66403;50.832;10.950;2023-06-22T07:09:58;8.57;;;7.10;;
76801;SDS011;66403;50.832;10.950;2023-06-22T07:15:04;10.50;;;6.38;;
76801;SDS011;66403;50.832;10.950;2023-06-22T07:20:08;8.55;;;6.57;;
76801;SDS011;66403;50.832;10.950;2023-06-22T07:30:14;6.97;;;6.28;;
76801;SDS011;66403;50.832;10.950;2023-06-22T07:35:14;9.67;;;6.67;;
76801;SDS011;66403;50.832;10.950;2023-06-22T07:40:16;8.32;;;7.10;;
76801;SDS011;66403;50.832;10.950;2023-06-22T07:45:17;7.38;;;6.68;;
76801;SDS011;66403;50.832;10.950;2023-06-22T07:50:18;7.57;;;6.80;;
76801;SDS011;66403;50.832;10.950;2023-06-22T07:55:18;7.00;;;6.30;;
76801;SDS011;66403;50.832;10.950;2023-06-22T08:00:20;7.95;;;6.03;;
76801;SDS011;66403;50.832;10.950;2023-06-22T08:05:20;9.77;;;7.30;;
76801;SDS011;66403;50.832;10.950;2023-06-22T08:10:21;8.18;;;7.40;;
76801;SDS011;66403;50.832;10.950;2023-06-22T08:15:21;7.53;;;6.82;;
76801;SDS011;66403;50.832;10.950;2023-06-22T08:20:22;8.48;;;7.68;;
76801;SDS011;66403;50.832;10.950;2023-06-22T08:25:22;7.13;;;6.43;;
76801;SDS011;66403;50.832;10.950;2023-06-22T08:30:23;6.70;;;6.00;;
76801;SDS011;66403;50.832;10.950;2023-06-22T08:35:24;7.63;;;6.93;;
76801;SDS011;66403;50.832;10.950;2023-06-22T08:40:25;8.30;;;7.50;;
76801;SDS011;66403;50.832;10.950;2023-06-22T08:45:25;11.07;;;7.20;;
76801;SDS011;66403;50.832;10.950;2023-06-22T08:50:26;6.97;;;6.38;;
76801;SDS011;66403;50.832;10.950;2023-06-22T08:55:26;8.47;;;7.77;;
76801;SDS011;66403;50.832;10.950;2023-06-22T09:00:27;7.60;;;6.90;;
76801;SDS011;66403;50.832;10.950;2023-06-22T09:10:29;5.70;;;5.20;;
76801;SDS011;66403;50.832;10.950;2023-06-22T09:15:30;6.10;;;5.37;;
76801;SDS011;66403;50.832;10.950;2023-06-22T09:20:30;10.37;;;9.40;;
76801;SDS011;66403;50.832;10.950;2023-06-22T09:25:31;5.03;;;4.45;;
76801;SDS011;66403;50.832;10.950;2023-06-22T09:30:32;5.72;;;5.22;;
76801;SDS011;66403;50.832;10.950;2023-06-22T09:35:32;5.95;;;5.03;;
76801;SDS011;66403;50.832;10.950;2023-06-22T09:40:32;6.17;;;5.67;;
76801;SDS011;66403;50.832;10.950;2023-06-22T09:45:35;5.22;;;4.82;;
76801;SDS011;66403;50.832;10.950;2023-06-22T09:50:36;6.27;;;5.57;;
76801;SDS011;66403;50.832;10.950;2023-06-22T09:55:37;7.00;;;6.28;;
76801;SDS011;66403;50.832;10.950;2023-06-22T10:00:37;6.67;;;6.07;;
76801;SDS011;66403;50.832;10.950;2023-06-22T10:05:38;6.73;;;6.13;;
76801;SDS011;66403;50.832;10.950;2023-06-22T10:10:38;6.20;;;5.68;;
76801;SDS011;66403;50.832;10.950;2023-06-22T10:15:39;7.00;;;6.33;;
76801;SDS011;66403;50.832;10.950;2023-06-22T10:20:40;6.28;;;5.68;;
76801;SDS011;66403;50.832;10.950;2023-06-22T10:25:40;7.63;;;6.57;;
76801;SDS011;66403;50.832;10.950;2023-06-22T10:30:42;7.25;;;6.60;;
76801;SDS011;66403;50.832;10.950;2023-06-22T10:35:42;7.20;;;6.60;;
76801;SDS011;66403;50.832;10.950;2023-06-22T10:40:43;7.55;;;6.85;;
76801;SDS011;66403;50.832;10.950;2023-06-22T10:45:44;6.70;;;6.00;;
76801;SDS011;66403;50.832;10.950;2023-06-22T10:50:44;5.65;;;5.03;;
76801;SDS011;66403;50.832;10.950;2023-06-22T10:55:47;8.05;;;6.90;;
76801;SDS011;66403;50.832;10.950;2023-06-22T11:00:47;6.18;;;5.65;;
76801;SDS011;66403;50.832;10.950;2023-06-22T11:05:48;7.40;;;6.70;;
76801;SDS011;66403;50.832;10.950;2023-06-22T11:10:48;7.10;;;6.50;;
76801;SDS011;66403;50.832;10.950;2023-06-22T11:15:49;7.00;;;6.40;;
76801;SDS011;66403;50.832;10.950;2023-06-22T11:20:49;7.70;;;7.00;;
76801;SDS011;66403;50.832;10.950;2023-06-22T11:25:50;6.70;;;6.20;;
76801;SDS011;66403;50.832;10.950;2023-06-22T11:30:50;10.37;;;9.37;;
76801;SDS011;66403;50.832;10.950;2023-06-22T11:35:50;6.80;;;6.10;;
76801;SDS011;66403;50.832;10.950;2023-06-22T11:40:51;6.63;;;6.13;;
76801;SDS011;66403;50.832;10.950;2023-06-22T11:45:51;6.80;;;6.30;;
76801;SDS011;66403;50.832;10.950;2023-06-22T11:50:54;7.90;;;7.10;;
76801;SDS011;66403;50.832;10.950;2023-06-22T11:55:57;7.75;;;7.05;;
76801;SDS011;66403;50.832;10.950;2023-06-22T12:00:59;7.63;;;6.88;;
76801;SDS011;66403;50.832;10.950;2023-06-22T12:06:00;6.18;;;5.57;;
76801;SDS011;66403;50.832;10.950;2023-06-22T12:11:00;7.85;;;7.20;;
76801;SDS011;66403;50.832;10.950;2023-06-22T12:16:01;8.27;;;7.57;;
76801;SDS011;66403;50.832;10.950;2023-06-22T12:21:01;7.80;;;7.00;;
76801;SDS011;66403;50.832;10.950;2023-06-22T12:26:02;8.03;;;7.23;;
76801;SDS011;66403;50.832;10.950;2023-06-22T12:31:02;6.33;;;5.83;;
76801;SDS011;66403;50.832;10.950;2023-06-22T12:36:02;6.87;;;6.27;;
76801;SDS011;66403;50.832;10.950;2023-06-22T12:41:04;6.88;;;6.28;;
76801;SDS011;66403;50.832;10.950;2023-06-22T12:46:05;9.37;;;6.33;;
76801;SDS011;66403;50.832;10.950;2023-06-22T12:51:05;7.33;;;6.73;;
76801;SDS011;66403;50.832;10.950;2023-06-22T12:56:06;7.30;;;6.70;;
76801;SDS011;66403;50.832;10.950;2023-06-22T13:01:06;6.80;;;6.17;;
76801;SDS011;66403;50.832;10.950;2023-06-22T13:06:06;6.73;;;6.03;;
76801;SDS011;66403;50.832;10.950;2023-06-22T13:11:07;7.80;;;7.00;;
76801;SDS011;66403;50.832;10.950;2023-06-22T13:16:07;7.43;;;6.73;;
76801;SDS011;66403;50.832;10.950;2023-06-22T13:21:08;10.53;;;9.50;;
76801;SDS011;66403;50.832;10.950;2023-06-22T13:26:08;6.93;;;6.33;;
76801;SDS011;66403;50.832;10.950;2023-06-22T13:31:08;6.77;;;6.17;;
76801;SDS011;66403;50.832;10.950;2023-06-22T13:36:09;6.88;;;6.30;;
76801;SDS011;66403;50.832;10.950;2023-06-22T13:41:09;7.20;;;6.60;;
76801;SDS011;66403;50.832;10.950;2023-06-22T13:46:10;10.50;;;6.40;;
76801;SDS011;66403;50.832;10.950;2023-06-22T13:51:10;7.07;;;6.57;;
76801;SDS011;66403;50.832;10.950;2023-06-22T13:56:11;7.37;;;6.73;;
76801;SDS011;66403;50.832;10.950;2023-06-22T14:01:11;7.60;;;6.80;;
76801;SDS011;66403;50.832;10.950;2023-06-22T14:06:11;8.40;;;6.33;;
76801;SDS011;66403;50.832;10.950;2023-06-22T14:11:12;6.67;;;5.97;;
76801;SDS011;66403;50.832;10.950;2023-06-22T14:16:12;7.77;;;7.07;;
76801;SDS011;66403;50.832;10.950;2023-06-22T14:21:12;7.13;;;6.43;;
76801;SDS011;66403;50.832;10.950;2023-06-22T14:26:13;10.27;;;6.70;;
76801;SDS011;66403;50.832;10.950;2023-06-22T14:31:14;11.30;;;6.60;;
76801;SDS011;66403;50.832;10.950;2023-06-22T14:36:15;8.02;;;5.90;;
76801;SDS011;66403;50.832;10.950;2023-06-22T14:41:17;8.38;;;7.03;;
76801;SDS011;66403;50.832;10.950;2023-06-22T14:46:18;9.35;;;6.95;;
76801;SDS011;66403;50.832;10.950;2023-06-22T14:51:19;7.93;;;7.20;;
76801;SDS011;66403;50.832;10.950;2023-06-22T14:56:19;7.40;;;5.57;;
76801;SDS011;66403;50.832;10.950;2023-06-22T15:01:20;8.43;;;7.23;;
76801;SDS011;66403;50.832;10.950;2023-06-22T15:06:20;6.17;;;5.57;;
76801;SDS011;66403;50.832;10.950;2023-06-22T15:11:21;7.28;;;6.57;;
76801;SDS011;66403;50.832;10.950;2023-06-22T15:16:21;8.87;;;6.30;;
76801;SDS011;66403;50.832;10.950;2023-06-22T15:21:22;9.57;;;6.80;;
76801;SDS011;66403;50.832;10.950;2023-06-22T15:26:22;9.27;;;6.40;;
76801;SDS011;66403;50.832;10.950;2023-06-22T15:31:23;12.18;;;7.00;;
76801;SDS011;66403;50.832;10.950;2023-06-22T15:36:23;10.00;;;7.20;;
76801;SDS011;66403;50.832;10.950;2023-06-22T15:41:24;7.63;;;6.03;;
76801;SDS011;66403;50.832;10.950;2023-06-22T15:46:24;7.40;;;6.63;;
76801;SDS011;66403;50.832;10.950;2023-06-22T15:51:25;7.20;;;5.30;;
76801;SDS011;66403;50.832;10.950;2023-06-22T15:56:25;7.50;;;6.03;;
76801;SDS011;66403;50.832;10.950;2023-06-22T16:01:25;8.27;;;6.10;;
76801;SDS011;66403;50.832;10.950;2023-06-22T16:06:26;8.33;;;6.30;;
76801;SDS011;66403;50.832;10.950;2023-06-22T16:11:26;9.47;;;8.40;;
76801;SDS011;66403;50.832;10.950;2023-06-22T16:16:27;13.70;;;11.68;;
76801;SDS011;66403;50.832;10.950;2023-06-22T16:21:27;7.73;;;6.77;;
76801;SDS011;66403;50.832;10.950;2023-06-22T16:26:29;9.60;;;6.03;;
76801;SDS011;66403;50.832;10.950;2023-06-22T16:31:30;7.35;;;6.65;;
76801;SDS011;66403;50.832;10.950;2023-06-22T16:36:30;7.47;;;6.40;;
76801;SDS011;66403;50.832;10.950;2023-06-22T16:41:31;8.10;;;6.87;;
76801;SDS011;66403;50.832;10.950;2023-06-22T16:46:34;11.53;;;6.37;;
76801;SDS011;66403;50.832;10.950;2023-06-22T16:51:35;10.07;;;7.28;;
76801;SDS011;66403;50.832;10.950;2023-06-22T16:56:35;8.43;;;6.67;;
76801;SDS011;66403;50.832;10.950;2023-06-22T17:01:35;7.13;;;6.27;;
76801;SDS011;66403;50.832;10.950;2023-06-22T17:06:38;8.88;;;6.45;;
76801;SDS011;66403;50.832;10.950;2023-06-22T17:11:41;8.82;;;6.78;;
76801;SDS011;66403;50.832;10.950;2023-06-22T17:16:42;7.68;;;6.90;;
76801;SDS011;66403;50.832;10.950;2023-06-22T17:21:47;11.93;;;6.35;;
76801;SDS011;66403;50.832;10.950;2023-06-22T17:26:48;8.25;;;6.43;;
76801;SDS011;66403;50.832;10.950;2023-06-22T17:31:49;12.25;;;9.52;;
76801;SDS011;66403;50.832;10.950;2023-06-22T17:36:50;15.57;;;7.63;;
76801;SDS011;66403;50.832;10.950;2023-06-22T17:41:51;9.98;;;7.13;;
76801;SDS011;66403;50.832;10.950;2023-06-22T17:46:52;7.22;;;6.45;;
76801;SDS011;66403;50.832;10.950;2023-06-22T17:51:53;7.55;;;6.85;;
76801;SDS011;66403;50.832;10.950;2023-06-22T17:56:53;10.85;;;7.10;;
76801;SDS011;66403;50.832;10.950;2023-06-22T18:01:54;9.10;;;7.25;;
76801;SDS011;66403;50.832;10.950;2023-06-22T18:06:54;11.83;;;9.70;;
76801;SDS011;66403;50.832;10.950;2023-06-22T18:11:55;10.18;;;6.93;;
76801;SDS011;66403;50.832;10.950;2023-06-22T18:16:57;11.48;;;9.48;;
76801;SDS011;66403;50.832;10.950;2023-06-22T18:21:58;9.10;;;8.10;;
76801;SDS011;66403;50.832;10.950;2023-06-22T18:26:58;12.53;;;7.73;;
76801;SDS011;66403;50.832;10.950;2023-06-22T18:31:59;11.13;;;6.93;;
76801;SDS011;66403;50.832;10.950;2023-06-22T18:36:59;9.63;;;7.63;;
76801;SDS011;66403;50.832;10.950;2023-06-22T18:42:01;8.32;;;7.30;;
76801;SDS011;66403;50.832;10.950;2023-06-22T18:47:03;13.23;;;6.88;;
76801;SDS011;66403;50.832;10.950;2023-06-22T18:57:26;10.85;;;4.65;;
76801;SDS011;66403;50.832;10.950;2023-06-22T19:02:39;12.32;;;5.78;;
76801;SDS011;66403;50.832;10.950;2023-06-22T19:12:54;14.25;;;5.88;;
76801;SDS011;66403;50.832;10.950;2023-06-22T19:17:59;12.15;;;5.57;;
76801;SDS011;66403;50.832;10.950;2023-06-22T19:23:00;10.10;;;4.53;;
76801;SDS011;66403;50.832;10.950;2023-06-22T19:28:00;6.37;;;3.87;;
76801;SDS011;66403;50.832;10.950;2023-06-22T19:33:01;9.68;;;3.28;;
76801;SDS011;66403;50.832;10.950;2023-06-22T19:38:08;4.38;;;2.38;;
76801;SDS011;66403;50.832;10.950;2023-06-22T19:43:09;3.50;;;1.35;;
76801;SDS011;66403;50.832;10.950;2023-06-22T19:48:10;2.58;;;1.50;;
76801;SDS011;66403;50.832;10.950;2023-06-22T19:53:14;6.20;;;2.58;;
76801;SDS011;66403;50.832;10.950;2023-06-22T19:58:15;6.70;;;2.10;;
76801;SDS011;66403;50.832;10.950;2023-06-22T20:03:17;4.93;;;1.65;;
76801;SDS011;66403;50.832;10.950;2023-06-22T20:08:19;4.28;;;2.15;;
76801;SDS011;66403;50.832;10.950;2023-06-22T20:13:20;1.88;;;1.40;;
76801;SDS011;66403;50.832;10.950;2023-06-22T20:18:21;2.67;;;1.50;;
76801;SDS011;66403;50.832;10.950;2023-06-22T20:23:22;2.22;;;1.52;;
76801;SDS011;66403;50.832;10.950;2023-06-22T20:28:24;2.63;;;2.08;;
76801;SDS011;66403;50.832;10.950;2023-06-22T20:33:25;2.50;;;1.42;;
76801;SDS011;66403;50.832;10.950;2023-06-22T20:38:26;3.22;;;1.35;;
76801;SDS011;66403;50.832;10.950;2023-06-22T20:43:28;3.47;;;1.77;;
76801;SDS011;66403;50.832;10.950;2023-06-22T20:48:28;2.80;;;1.55;;
76801;SDS011;66403;50.832;10.950;2023-06-22T20:53:29;4.68;;;2.38;;
76801;SDS011;66403;50.832;10.950;2023-06-22T20:58:29;2.10;;;1.48;;
76801;SDS011;66403;50.832;10.950;2023-06-22T21:03:30;1.65;;;1.20;;
76801;SDS011;66403;50.832;10.950;2023-06-22T21:08:31;2.75;;;1.73;;
76801;SDS011;66403;50.832;10.950;2023-06-22T21:13:31;1.77;;;1.20;;
76801;SDS011;66403;50.832;10.950;2023-06-22T21:18:34;1.40;;;1.10;;
76801;SDS011;66403;50.832;10.950;2023-06-22T21:23:34;4.27;;;1.50;;
76801;SDS011;66403;50.832;10.950;2023-06-22T21:28:35;3.17;;;2.13;;
76801;SDS011;66403;50.832;10.950;2023-06-22T21:33:36;4.35;;;1.83;;
76801;SDS011;66403;50.832;10.950;2023-06-22T21:38:36;2.08;;;1.45;;
76801;SDS011;66403;50.832;10.950;2023-06-22T21:43:36;2.53;;;1.33;;
76801;SDS011;66403;50.832;10.950;2023-06-22T21:48:37;33.57;;;18.57;;
76801;SDS011;66403;50.832;10.950;2023-06-22T21:53:37;2.53;;;1.67;;
76801;SDS011;66403;50.832;10.950;2023-06-22T21:58:38;4.00;;;1.42;;
76801;SDS011;66403;50.832;10.950;2023-06-22T22:03:38;2.47;;;1.47;;
76801;SDS011;66403;50.832;10.950;2023-06-22T22:08:42;3.53;;;1.70;;
76801;SDS011;66403;50.832;10.950;2023-06-22T22:13:43;2.10;;;1.75;;
76801;SDS011;66403;50.832;10.950;2023-06-22T22:18:43;3.13;;;1.90;;
76801;SDS011;66403;50.832;10.950;2023-06-22T22:23:44;3.83;;;1.92;;
76801;SDS011;66403;50.832;10.950;2023-06-22T22:28:45;3.78;;;2.10;;
76801;SDS011;66403;50.832;10.950;2023-06-22T22:33:45;4.37;;;2.00;;
76801;SDS011;66403;50.832;10.950;2023-06-22T22:38:45;3.80;;;2.58;;
76801;SDS011;66403;50.832;10.950;2023-06-22T22:43:46;3.92;;;2.10;;
76801;SDS011;66403;50.832;10.950;2023-06-22T22:48:47;2.83;;;2.05;;
76801;SDS011;66403;50.832;10.950;2023-06-22T22:53:47;4.00;;;2.17;;
76801;SDS011;66403;50.832;10.950;2023-06-22T22:58:48;3.97;;;2.63;;
76801;SDS011;66403;50.832;10.950;2023-06-22T23:03:48;5.95;;;2.42;;
76801;SDS011;66403;50.832;10.950;2023-06-22T23:08:49;4.57;;;2.30;;
76801;SDS011;66403;50.832;10.950;2023-06-22T23:13:55;7.68;;;2.45;;
76801;SDS011;66403;50.832;10.950;2023-06-22T23:18:57;4.95;;;2.50;;
76801;SDS011;66403;50.832;10.950;2023-06-22T23:23:57;3.72;;;2.28;;
76801;SDS011;66403;50.832;10.950;2023-06-22T23:28:58;4.60;;;2.78;;
76801;SDS011;66403;50.832;10.950;2023-06-22T23:33:58;2.88;;;2.53;;
76801;SDS011;66403;50.832;10.950;2023-06-22T23:44:03;7.78;;;5.43;;
76801;SDS011;66403;50.832;10.950;2023-06-22T23:49:04;5.57;;;2.70;;
76801;SDS011;66403;50.832;10.950;2023-06-22T23:54:04;2.83;;;2.22;;
76801;SDS011;66403;50.832;10.950;2023-06-22T23:59:05;3.80;;;2.40;;
